Time;durP1;ratioP1;P1;durP2;ratioP2;P2;SDS_P1;SDS_P2;PMS_P1;PMS_P2;Temp;Humidity;BMP_temperature;BMP_pressure;BME280_temperature;BME280_humidity;BME280_pressure;Samples;Min_cycle;Max_cycle;Signal;HPM_P1;HPM_P2
2022/09/02 00:00:27;;;;;;;;;;;;;;;;;;1049542;28;3689;-48
2022/09/02 00:01:16;;;;;;;;;;;;;;;;;;1049645;28;4050;-48
2022/09/02 00:01:46;;;;;;;;;;;;;;;;;;1051936;28;4211;-48
2022/09/02 00:02:17;;;;;;;;;;;;;;;;;;1050566;28;3605;-49
2022/09/02 00:02:48;;;;;;;;;;;;;;;;;;1050839;28;4400;-48
2022/09/02 00:03:18;;;;;;;;;;;;;;;;;;1050950;28;2896;-47
2022/09/02 00:03:49;;;;;;;;;;;;;;;;;;1048632;28;3884;-53
2022/09/02 00:04:21;;;;;;;;;;;;;;;;;;1050436;28;4051;-51
2022/09/02 00:04:52;;;;;;;;;;;;;;;;;;1046311;28;4087;-49
2022/09/02 00:05:22;;;;;;;;;;;;;;;;;;1046578;28;3479;-47
2022/09/02 00:05:52;;;;;;;;;;;;;;;;;;1045676;28;4129;-53
2022/09/02 00:06:23;;;;;;;;;;;;;;;;;;1047205;28;3865;-48
2022/09/02 00:06:53;;;;;;;;;;;;;;;;;;1049571;28;4234;-50
2022/09/02 00:07:23;;;;;;;;;;;;;;;;;;1052360;28;3583;-49
2022/09/02 00:07:54;;;;;;;;;;;;;;;;;;1050655;28;4104;-51
2022/09/02 00:08:24;;;;;;;;;;;;;;;;;;1051345;28;4173;-49
2022/09/02 00:08:54;;;;;;;;;;;;;;;;;;1050354;28;4073;-47
2022/09/02 00:09:24;;;;;;;;;;;;;;;;;;1051797;28;3854;-49
2022/09/02 00:09:55;;;;;;;;;;;;;;;;;;1050890;28;3933;-49
2022/09/02 00:10:26;;;;;;;;;;;;;;;;;;1051856;28;3791;-49
2022/09/02 00:10:57;;;;;;;;;;;;;;;;;;1049227;28;3811;-50
2022/09/02 00:11:28;;;;;;;;;;;;;;;;;;1050950;28;3768;-49
2022/09/02 00:11:58;;;;;;;;;;;;;;;;;;1049600;28;4290;-50
2022/09/02 00:12:29;;;;;;;;;;;;;;;;;;1050857;28;3746;-48
2022/09/02 00:12:59;;;;;;;;;;;;;;;;;;1049050;28;4123;-49
2022/09/02 00:13:29;;;;;;;;;;;;;;;;;;1051177;28;3879;-49
2022/09/02 00:14:01;;;;;;;;;;;;;;;;;;1050893;28;4066;-47
2022/09/02 00:14:34;;;;;;;;;;;;;;;;;;1051540;28;3236;-47
2022/09/02 00:15:04;;;;;;;;;;;;;;;;;;1049757;28;3868;-48
2022/09/02 00:15:34;;;;;;;;;;;;;;;;;;1050724;28;3105;-54
2022/09/02 00:16:05;;;;;;;;;;;;;;;;;;1046443;28;3788;-48
2022/09/02 00:16:36;;;;;;;;;;;;;;;;;;1047749;28;3729;-49
2022/09/02 00:17:06;;;;;;;;;;;;;;;;;;1046054;28;4074;-50
2022/09/02 00:17:36;;;;;;;;;;;;;;;;;;1044675;28;3169;-52
2022/09/02 00:18:12;;;;;;;;;;;;;;;;;;1050048;28;4163;-48
2022/09/02 00:18:43;;;;;;;;;;;;;;;;;;1051828;28;4036;-47
2022/09/02 00:19:13;;;;;;;;;;;;;;;;;;1049888;28;4024;-48
2022/09/02 00:19:44;;;;;;;;;;;;;;;;;;1051090;28;3235;-49
2022/09/02 00:20:14;;;;;;;;;;;;;;;;;;1050627;28;4009;-49
2022/09/02 00:20:46;;;;;;;;;;;;;;;;;;1051505;28;3844;-50
2022/09/02 00:21:17;;;;;;;;;;;;;;;;;;1050639;28;4894;-51
2022/09/02 00:21:47;;;;;;;;;;;;;;;;;;1050766;28;4093;-48
2022/09/02 00:22:18;;;;;;;;;;;;;;;;;;1051591;28;3709;-47
2022/09/02 00:22:48;;;;;;;;;;;;;;;;;;1050169;28;4093;-50
2022/09/02 00:23:19;;;;;;;;;;;;;;;;;;1051403;28;2637;-47
2022/09/02 00:23:50;;;;;;;;;;;;;;;;;;1049971;28;4083;-52
2022/09/02 00:24:21;;;;;;;;;;;;;;;;;;1051003;28;3807;-48
2022/09/02 00:24:51;;;;;;;;;;;;;;;;;;1050801;28;3984;-47
2022/09/02 00:25:27;;;;;;;;;;;;;;;;;;1051893;28;3890;-50
2022/09/02 00:25:57;;;;;;;;;;;;;;;;;;1049849;28;4160;-49
2022/09/02 00:26:28;;;;;;;;;;;;;;;;;;1050614;28;4080;-50
2022/09/02 00:26:58;;;;;;;;;;;;;;;;;;1051494;28;4047;-50
2022/09/02 00:27:28;;;;;;;;;;;;;;;;;;1051190;28;3745;-47
2022/09/02 00:27:59;;;;;;;;;;;;;;;;;;1050194;28;3853;-48
2022/09/02 00:28:29;;;;;;;;;;;;;;;;;;1051250;28;3764;-49
2022/09/02 00:29:00;;;;;;;;;;;;;;;;;;1049756;28;4038;-50
2022/09/02 00:29:30;;;;;;;;;;;;;;;;;;1050907;28;3700;-49
2022/09/02 00:30:01;;;;;;;;;;;;;;;;;;1050252;28;3950;-48
2022/09/02 00:30:32;;;;;;;;;;;;;;;;;;1051548;28;3716;-53
2022/09/02 00:31:02;;;;;;;;;;;;;;;;;;1051176;28;3758;-48
2022/09/02 00:31:35;;;;;;;;;;;;;;;;;;1052104;28;3813;-48
2022/09/02 00:32:05;;;;;;;;;;;;;;;;;;1050352;28;3982;-49
2022/09/02 00:32:35;;;;;;;;;;;;;;;;;;1049724;28;3657;-48
2022/09/02 00:33:07;;;;;;;;;;;;;;;;;;1050700;28;3773;-48
2022/09/02 00:33:37;;;;;;;;;;;;;;;;;;1050187;28;3664;-48
2022/09/02 00:34:08;;;;;;;;;;;;;;;;;;1051545;28;4035;-48
2022/09/02 00:34:39;;;;;;;;;;;;;;;;;;1050240;28;3442;-51
2022/09/02 00:35:09;;;;;;;;;;;;;;;;;;1051025;28;4011;-47
2022/09/02 00:35:40;;;;;;;;;;;;;;;;;;1046982;28;3696;-46
2022/09/02 00:36:11;;;;;;;;;;;;;;;;;;1045938;28;3974;-48
2022/09/02 00:36:41;;;;;;;;;;;;;;;;;;1047336;28;3735;-47
2022/09/02 00:37:12;;;;;;;;;;;;;;;;;;1046779;28;3852;-49
2022/09/02 00:37:42;;;;;;;;;;;;;;;;;;1051589;28;3707;-49
2022/09/02 00:38:12;;;;;;;;;;;;;;;;;;1050135;28;3846;-49
2022/09/02 00:38:43;;;;;;;;;;;;;;;;;;1051153;28;3903;-54
2022/09/02 00:39:13;;;;;;;;;;;;;;;;;;1045237;28;4130;-49
2022/09/02 00:39:43;;;;;;;;;;;;;;;;;;1047060;28;3733;-48
2022/09/02 00:40:14;;;;;;;;;;;;;;;;;;1046619;28;3951;-49
2022/09/02 00:40:46;;;;;;;;;;;;;;;;;;1047088;28;3886;-50
2022/09/02 00:41:17;;;;;;;;;;;;;;;;;;1051185;28;3955;-48
2022/09/02 00:41:48;;;;;;;;;;;;;;;;;;1049920;28;4268;-51
2022/09/02 00:42:19;;;;;;;;;;;;;;;;;;1051315;28;3342;-50
2022/09/02 00:42:50;;;;;;;;;;;;;;;;;;1046956;28;3887;-53
2022/09/02 00:43:38;;;;;;;;;;;;;;;;;;1049273;28;3263;-50
2022/09/02 00:44:11;;;;;;;;;;;;;;;;;;1048719;28;4056;-48
2022/09/02 00:44:41;;;;;;;;;;;;;;;;;;1049715;28;3663;-49
2022/09/02 00:45:11;;;;;;;;;;;;;;;;;;1051128;28;3982;-49
2022/09/02 00:45:42;;;;;;;;;;;;;;;;;;1050095;28;3613;-51
2022/09/02 00:46:14;;;;;;;;;;;;;;;;;;1051387;28;4005;-52
2022/09/02 00:46:45;;;;;;;;;;;;;;;;;;1050920;28;3674;-48
2022/09/02 00:47:16;;;;;;;;;;;;;;;;;;1048659;28;3864;-49
2022/09/02 00:47:50;;;;;;;;;;;;;;;;;;1050648;28;4094;-50
2022/09/02 00:48:20;;;;;;;;;;;;;;;;;;1051499;28;3021;-49
2022/09/02 00:48:54;;;;;;;;;;;;;;;;;;1049702;28;4009;-53
2022/09/02 00:49:37;;;;;;;;;;;;;;;;;;1050715;28;3729;-52
2022/09/02 00:50:09;;;;;;;;;;;;;;;;;;1046295;28;4333;-47
2022/09/02 00:50:39;;;;;;;;;;;;;;;;;;1046348;28;3716;-48
2022/09/02 00:51:10;;;;;;;;;;;;;;;;;;1045786;28;3809;-48
2022/09/02 00:51:48;;;;;;;;;;;;;;;;;;1042911;28;4318;-47
2022/09/02 00:52:28;;;;;;;;;;;;;;;;;;1045959;28;3947;-50
2022/09/02 00:53:07;;;;;;;;;;;;;;;;;;1046912;28;4000;-51
2022/09/02 00:53:45;;;;;;;;;;;;;;;;;;1046399;28;3408;-47
2022/09/02 00:54:18;;;;;;;;;;;;;;;;;;1047725;28;3800;-51
2022/09/02 00:54:52;;;;;;;;;;;;;;;;;;1046912;28;3944;-48
2022/09/02 00:55:24;;;;;;;;;;;;;;;;;;1047064;28;1635;-50
2022/09/02 00:55:55;;;;;;;;;;;;;;;;;;1044102;28;3918;-48
2022/09/02 00:56:27;;;;;;;;;;;;;;;;;;1046186;28;1646;-49
2022/09/02 00:56:59;;;;;;;;;;;;;;;;;;1046575;28;4245;-51
2022/09/02 00:57:32;;;;;;;;;;;;;;;;;;1047724;28;3686;-49
2022/09/02 00:58:07;;;;;;;;;;;;;;;;;;1046570;28;3901;-48
2022/09/02 00:58:38;;;;;;;;;;;;;;;;;;1047186;28;2418;-53
2022/09/02 00:59:09;;;;;;;;;;;;;;;;;;1047121;28;3785;-47
2022/09/02 00:59:58;;;;;;;;;;;;;;;;;;1046119;28;3805;-51
2022/09/02 01:00:32;;;;;;;;;;;;;;;;;;1046168;28;3791;-47
2022/09/02 01:01:03;;;;;;;;;;;;;;;;;;1047369;28;4033;-48
2022/09/02 01:01:33;;;;;;;;;;;;;;;;;;1046450;28;3750;-49
2022/09/02 01:02:04;;;;;;;;;;;;;;;;;;1045169;28;3875;-48
2022/09/02 01:02:36;;;;;;;;;;;;;;;;;;1046598;28;3821;-49
2022/09/02 01:03:09;;;;;;;;;;;;;;;;;;1047933;28;3852;-48
2022/09/02 01:03:40;;;;;;;;;;;;;;;;;;1047778;28;3841;-48
2022/09/02 01:04:10;;;;;;;;;;;;;;;;;;1046224;28;3925;-48
2022/09/02 01:04:42;;;;;;;;;;;;;;;;;;1047543;28;3580;-51
2022/09/02 01:05:13;;;;;;;;;;;;;;;;;;1045920;28;4016;-50
2022/09/02 01:05:44;;;;;;;;;;;;;;;;;;1047717;28;3766;-49
2022/09/02 01:06:18;;;;;;;;;;;;;;;;;;1046128;28;3935;-50
2022/09/02 01:06:48;;;;;;;;;;;;;;;;;;1046085;28;4048;-49
2022/09/02 01:07:21;;;;;;;;;;;;;;;;;;1047187;28;2746;-49
2022/09/02 01:07:52;;;;;;;;;;;;;;;;;;1045427;28;3942;-49
2022/09/02 01:08:25;;;;;;;;;;;;;;;;;;1046538;28;3683;-48
2022/09/02 01:09:08;;;;;;;;;;;;;;;;;;1047209;28;4467;-52
2022/09/02 01:09:39;;;;;;;;;;;;;;;;;;1046354;28;3659;-52
2022/09/02 01:10:13;;;;;;;;;;;;;;;;;;1046419;28;3898;-52
2022/09/02 01:10:45;;;;;;;;;;;;;;;;;;1048130;28;3742;-51
2022/09/02 01:11:17;;;;;;;;;;;;;;;;;;1046919;28;4327;-49
2022/09/02 01:11:51;;;;;;;;;;;;;;;;;;1047022;28;3801;-48
2022/09/02 01:12:23;;;;;;;;;;;;;;;;;;1047732;28;3465;-52
2022/09/02 01:12:54;;;;;;;;;;;;;;;;;;1047742;28;3798;-49
2022/09/02 01:13:25;;;;;;;;;;;;;;;;;;1046788;28;2932;-50
2022/09/02 01:13:56;;;;;;;;;;;;;;;;;;1046609;28;4012;-49
2022/09/02 01:14:27;;;;;;;;;;;;;;;;;;1046286;28;3859;-48
2022/09/02 01:14:58;;;;;;;;;;;;;;;;;;1047582;28;4105;-54
2022/09/02 01:15:38;;;;;;;;;;;;;;;;;;1046963;28;3534;-48
2022/09/02 01:16:15;;;;;;;;;;;;;;;;;;1045699;28;3947;-48
2022/09/02 01:16:48;;;;;;;;;;;;;;;;;;1047064;28;3720;-49
2022/09/02 01:17:19;;;;;;;;;;;;;;;;;;1046989;28;4183;-52
2022/09/02 01:17:49;;;;;;;;;;;;;;;;;;1042866;28;4024;-48
2022/09/02 01:18:23;;;;;;;;;;;;;;;;;;1045441;28;4536;-53
2022/09/02 01:18:55;;;;;;;;;;;;;;;;;;1047622;28;3971;-50
2022/09/02 01:19:29;;;;;;;;;;;;;;;;;;1045253;28;3814;-51
2022/09/02 01:20:03;;;;;;;;;;;;;;;;;;1045695;28;4925;-51
2022/09/02 01:20:34;;;;;;;;;;;;;;;;;;1046770;28;3426;-50
2022/09/02 01:21:04;;;;;;;;;;;;;;;;;;1043777;28;3958;-52
2022/09/02 01:21:34;;;;;;;;;;;;;;;;;;1044849;28;2637;-49
2022/09/02 01:22:13;;;;;;;;;;;;;;;;;;1044970;28;4068;-51
2022/09/02 01:22:44;;;;;;;;;;;;;;;;;;1045590;28;3667;-47
2022/09/02 01:23:16;;;;;;;;;;;;;;;;;;1048767;28;3837;-48
2022/09/02 01:23:47;;;;;;;;;;;;;;;;;;1047574;28;2134;-50
2022/09/02 01:24:18;;;;;;;;;;;;;;;;;;1046456;28;3751;-47
2022/09/02 01:24:48;;;;;;;;;;;;;;;;;;1046909;28;4057;-47
2022/09/02 01:25:20;;;;;;;;;;;;;;;;;;1046175;28;5073;-49
2022/09/02 01:25:50;;;;;;;;;;;;;;;;;;1046985;28;4141;-50
2022/09/02 01:26:20;;;;;;;;;;;;;;;;;;1046609;28;3601;-50
2022/09/02 01:26:51;;;;;;;;;;;;;;;;;;1045835;28;3959;-48
2022/09/02 01:27:22;;;;;;;;;;;;;;;;;;1047086;28;3746;-48
2022/09/02 01:27:52;;;;;;;;;;;;;;;;;;1046444;28;3880;-53
2022/09/02 01:28:23;;;;;;;;;;;;;;;;;;1047297;28;3104;-50
2022/09/02 01:28:53;;;;;;;;;;;;;;;;;;1045191;28;4379;-47
2022/09/02 01:29:25;;;;;;;;;;;;;;;;;;1047335;28;3737;-47
2022/09/02 01:29:57;;;;;;;;;;;;;;;;;;1046950;28;3895;-49
2022/09/02 01:30:27;;;;;;;;;;;;;;;;;;1047076;28;3529;-47
2022/09/02 01:30:58;;;;;;;;;;;;;;;;;;1045958;28;4066;-49
2022/09/02 01:31:28;;;;;;;;;;;;;;;;;;1046515;28;3711;-48
2022/09/02 01:31:58;;;;;;;;;;;;;;;;;;1046496;28;4233;-48
2022/09/02 01:32:29;;;;;;;;;;;;;;;;;;1045582;28;3442;-49
2022/09/02 01:32:59;;;;;;;;;;;;;;;;;;1046564;28;3875;-51
2022/09/02 01:33:30;;;;;;;;;;;;;;;;;;1047110;28;3758;-51
2022/09/02 01:34:00;;;;;;;;;;;;;;;;;;1046482;28;3979;-49
2022/09/02 01:34:30;;;;;;;;;;;;;;;;;;1046617;28;4050;-50
2022/09/02 01:35:00;;;;;;;;;;;;;;;;;;1047114;28;4046;-48
2022/09/02 01:35:31;;;;;;;;;;;;;;;;;;1045939;28;3761;-47
2022/09/02 01:36:03;;;;;;;;;;;;;;;;;;1047710;28;4162;-52
2022/09/02 01:36:36;;;;;;;;;;;;;;;;;;1047767;28;3446;-48
2022/09/02 01:37:07;;;;;;;;;;;;;;;;;;1045554;28;3923;-47
2022/09/02 01:37:38;;;;;;;;;;;;;;;;;;1047003;28;2839;-49
2022/09/02 01:38:08;;;;;;;;;;;;;;;;;;1046670;28;3867;-48
2022/09/02 01:38:39;;;;;;;;;;;;;;;;;;1047166;28;3846;-52
2022/09/02 01:39:10;;;;;;;;;;;;;;;;;;1045912;28;4413;-48
2022/09/02 01:39:40;;;;;;;;;;;;;;;;;;1046272;28;3824;-52
2022/09/02 01:40:11;;;;;;;;;;;;;;;;;;1045524;28;4013;-49
2022/09/02 01:40:42;;;;;;;;;;;;;;;;;;1046955;28;3324;-47
2022/09/02 01:41:12;;;;;;;;;;;;;;;;;;1045711;28;3871;-52
2022/09/02 01:41:43;;;;;;;;;;;;;;;;;;1047527;28;3574;-48
2022/09/02 01:42:13;;;;;;;;;;;;;;;;;;1046165;28;4226;-48
2022/09/02 01:42:44;;;;;;;;;;;;;;;;;;1049407;28;3715;-49
2022/09/02 01:43:16;;;;;;;;;;;;;;;;;;1046372;28;3863;-48
2022/09/02 01:43:47;;;;;;;;;;;;;;;;;;1046833;28;4006;-53
2022/09/02 01:44:17;;;;;;;;;;;;;;;;;;1046367;28;3718;-47
2022/09/02 01:44:47;;;;;;;;;;;;;;;;;;1046973;28;4038;-49
2022/09/02 01:45:18;;;;;;;;;;;;;;;;;;1046249;28;2847;-50
2022/09/02 01:45:49;;;;;;;;;;;;;;;;;;1046752;28;3911;-51
2022/09/02 01:46:20;;;;;;;;;;;;;;;;;;1046737;28;2706;-48
2022/09/02 01:46:50;;;;;;;;;;;;;;;;;;1045696;28;3885;-48
2022/09/02 01:47:22;;;;;;;;;;;;;;;;;;1048182;28;3343;-51
2022/09/02 01:47:52;;;;;;;;;;;;;;;;;;1045600;28;4077;-51
2022/09/02 01:48:23;;;;;;;;;;;;;;;;;;1048975;28;2874;-49
2022/09/02 01:48:53;;;;;;;;;;;;;;;;;;1048437;28;3831;-50
2022/09/02 01:49:23;;;;;;;;;;;;;;;;;;1045550;28;3180;-49
2022/09/02 01:49:54;;;;;;;;;;;;;;;;;;1045725;28;3818;-50
2022/09/02 01:50:25;;;;;;;;;;;;;;;;;;1047663;28;3888;-49
2022/09/02 01:50:59;;;;;;;;;;;;;;;;;;1044714;28;3887;-51
2022/09/02 01:51:30;;;;;;;;;;;;;;;;;;1047029;28;3071;-46
2022/09/02 01:52:00;;;;;;;;;;;;;;;;;;1045578;28;4463;-48
2022/09/02 01:52:38;;;;;;;;;;;;;;;;;;1048423;28;3878;-51
2022/09/02 01:53:15;;;;;;;;;;;;;;;;;;1050875;28;3856;-48
2022/09/02 01:53:52;;;;;;;;;;;;;;;;;;1049888;28;4051;-50
2022/09/02 01:54:22;;;;;;;;;;;;;;;;;;1046252;28;2603;-52
2022/09/02 01:54:53;;;;;;;;;;;;;;;;;;1045928;28;4189;-50
2022/09/02 01:55:23;;;;;;;;;;;;;;;;;;1047639;28;1784;-48
2022/09/02 01:55:54;;;;;;;;;;;;;;;;;;1045570;28;3914;-51
2022/09/02 01:56:24;;;;;;;;;;;;;;;;;;1051906;28;2960;-52
2022/09/02 01:56:54;;;;;;;;;;;;;;;;;;1050710;28;3862;-51
2022/09/02 01:57:25;;;;;;;;;;;;;;;;;;1050749;28;3796;-48
2022/09/02 01:57:56;;;;;;;;;;;;;;;;;;1050333;28;4080;-50
2022/09/02 01:58:26;;;;;;;;;;;;;;;;;;1051002;28;3772;-47
2022/09/02 01:58:57;;;;;;;;;;;;;;;;;;1050860;28;3933;-52
2022/09/02 01:59:27;;;;;;;;;;;;;;;;;;1050204;28;3713;-51
2022/09/02 01:59:57;;;;;;;;;;;;;;;;;;1047515;28;4053;-50
2022/09/02 02:00:28;;;;;;;;;;;;;;;;;;1044696;28;3811;-49
2022/09/02 02:00:58;;;;;;;;;;;;;;;;;;1047201;28;4041;-50
2022/09/02 02:01:28;;;;;;;;;;;;;;;;;;1045835;28;3801;-49
2022/09/02 02:01:59;;;;;;;;;;;;;;;;;;1048030;28;3920;-52
2022/09/02 02:02:29;;;;;;;;;;;;;;;;;;1046721;28;3754;-52
2022/09/02 02:02:59;;;;;;;;;;;;;;;;;;1044269;28;4147;-50
2022/09/02 02:03:30;;;;;;;;;;;;;;;;;;1042090;28;3708;-49
2022/09/02 02:04:00;;;;;;;;;;;;;;;;;;1042459;28;3800;-49
2022/09/02 02:04:31;;;;;;;;;;;;;;;;;;1045505;28;3778;-52
2022/09/02 02:05:01;;;;;;;;;;;;;;;;;;1044736;28;3828;-47
2022/09/02 02:05:32;;;;;;;;;;;;;;;;;;1047227;28;3590;-51
2022/09/02 02:06:10;;;;;;;;;;;;;;;;;;1044444;28;4041;-47
2022/09/02 02:06:41;;;;;;;;;;;;;;;;;;1051590;28;3235;-50
2022/09/02 02:07:13;;;;;;;;;;;;;;;;;;1051632;28;4010;-52
2022/09/02 02:07:43;;;;;;;;;;;;;;;;;;1052101;28;3776;-49
2022/09/02 02:08:14;;;;;;;;;;;;;;;;;;1047042;28;3992;-51
2022/09/02 02:08:44;;;;;;;;;;;;;;;;;;1047455;28;3451;-51
2022/09/02 02:09:15;;;;;;;;;;;;;;;;;;1047214;28;3950;-48
2022/09/02 02:09:45;;;;;;;;;;;;;;;;;;1047010;28;3668;-49
2022/09/02 02:10:17;;;;;;;;;;;;;;;;;;1050841;28;3835;-48
2022/09/02 02:10:47;;;;;;;;;;;;;;;;;;1052576;28;4083;-47
2022/09/02 02:11:21;;;;;;;;;;;;;;;;;;1047113;28;3922;-50
2022/09/02 02:11:52;;;;;;;;;;;;;;;;;;1044451;28;4441;-48
2022/09/02 02:12:22;;;;;;;;;;;;;;;;;;1041543;28;3306;-48
2022/09/02 02:12:52;;;;;;;;;;;;;;;;;;1040904;28;4140;-47
2022/09/02 02:13:23;;;;;;;;;;;;;;;;;;1045373;28;1997;-53
2022/09/02 02:13:53;;;;;;;;;;;;;;;;;;1045297;28;3917;-49
2022/09/02 02:14:29;;;;;;;;;;;;;;;;;;1049436;28;3789;-50
2022/09/02 02:15:00;;;;;;;;;;;;;;;;;;1048082;28;4118;-48
2022/09/02 02:15:31;;;;;;;;;;;;;;;;;;1051219;28;2490;-50
2022/09/02 02:16:01;;;;;;;;;;;;;;;;;;1050648;28;4943;-48
2022/09/02 02:16:32;;;;;;;;;;;;;;;;;;1052115;28;3676;-47
2022/09/02 02:17:02;;;;;;;;;;;;;;;;;;1051849;28;4036;-47
2022/09/02 02:17:33;;;;;;;;;;;;;;;;;;1052236;28;3717;-51
2022/09/02 02:18:03;;;;;;;;;;;;;;;;;;1050493;28;4001;-50
2022/09/02 02:18:33;;;;;;;;;;;;;;;;;;1050808;28;3418;-49
2022/09/02 02:19:04;;;;;;;;;;;;;;;;;;1050929;28;4171;-50
2022/09/02 02:19:35;;;;;;;;;;;;;;;;;;1052429;28;3779;-50
2022/09/02 02:20:06;;;;;;;;;;;;;;;;;;1051298;28;4403;-49
2022/09/02 02:20:37;;;;;;;;;;;;;;;;;;1050420;28;3727;-53
2022/09/02 02:21:08;;;;;;;;;;;;;;;;;;1051955;28;4250;-48
2022/09/02 02:21:38;;;;;;;;;;;;;;;;;;1052488;28;3558;-48
2022/09/02 02:22:09;;;;;;;;;;;;;;;;;;1050866;28;4047;-50
2022/09/02 02:22:39;;;;;;;;;;;;;;;;;;1051861;28;3283;-48
2022/09/02 02:23:09;;;;;;;;;;;;;;;;;;1051041;28;4048;-52
2022/09/02 02:23:40;;;;;;;;;;;;;;;;;;1052721;28;3782;-48
2022/09/02 02:24:10;;;;;;;;;;;;;;;;;;1051369;28;4017;-46
2022/09/02 02:24:40;;;;;;;;;;;;;;;;;;1052372;28;3749;-50
2022/09/02 02:25:13;;;;;;;;;;;;;;;;;;1050754;28;4019;-50
2022/09/02 02:25:44;;;;;;;;;;;;;;;;;;1051722;28;4000;-53
2022/09/02 02:26:14;;;;;;;;;;;;;;;;;;1050432;28;4386;-48
2022/09/02 02:26:44;;;;;;;;;;;;;;;;;;1051546;28;3815;-48
2022/09/02 02:27:15;;;;;;;;;;;;;;;;;;1051217;28;4000;-51
2022/09/02 02:27:45;;;;;;;;;;;;;;;;;;1047254;28;3671;-48
2022/09/02 02:28:15;;;;;;;;;;;;;;;;;;1047164;28;3864;-49
2022/09/02 02:28:45;;;;;;;;;;;;;;;;;;1049738;28;3574;-48
2022/09/02 02:29:16;;;;;;;;;;;;;;;;;;1046898;28;3981;-52
2022/09/02 02:29:46;;;;;;;;;;;;;;;;;;1051549;28;3202;-47
2022/09/02 02:30:16;;;;;;;;;;;;;;;;;;1049949;28;3927;-47
2022/09/02 02:30:47;;;;;;;;;;;;;;;;;;1051605;28;3886;-47
2022/09/02 02:31:17;;;;;;;;;;;;;;;;;;1051162;28;3372;-49
2022/09/02 02:31:48;;;;;;;;;;;;;;;;;;1051348;28;3976;-50
2022/09/02 02:32:18;;;;;;;;;;;;;;;;;;1050995;28;3607;-50
2022/09/02 02:32:48;;;;;;;;;;;;;;;;;;1050630;28;4092;-48
2022/09/02 02:33:18;;;;;;;;;;;;;;;;;;1051181;28;2723;-48
2022/09/02 02:33:50;;;;;;;;;;;;;;;;;;1051505;28;3905;-52
2022/09/02 02:34:20;;;;;;;;;;;;;;;;;;1051850;28;3427;-51
2022/09/02 02:34:50;;;;;;;;;;;;;;;;;;1051809;28;4163;-50
2022/09/02 02:35:21;;;;;;;;;;;;;;;;;;1049981;28;2882;-49
2022/09/02 02:35:51;;;;;;;;;;;;;;;;;;1051764;28;3990;-50
2022/09/02 02:36:21;;;;;;;;;;;;;;;;;;1051327;28;2892;-47
2022/09/02 02:36:52;;;;;;;;;;;;;;;;;;1051568;28;4433;-50
2022/09/02 02:37:22;;;;;;;;;;;;;;;;;;1051023;28;3392;-51
2022/09/02 02:37:53;;;;;;;;;;;;;;;;;;1050798;28;4114;-51
2022/09/02 02:38:23;;;;;;;;;;;;;;;;;;1051823;28;2937;-48
2022/09/02 02:38:54;;;;;;;;;;;;;;;;;;1047725;28;4091;-48
2022/09/02 02:39:24;;;;;;;;;;;;;;;;;;1049171;28;3496;-54
2022/09/02 02:39:55;;;;;;;;;;;;;;;;;;1046929;28;4072;-47
2022/09/02 02:40:25;;;;;;;;;;;;;;;;;;1047967;28;3625;-50
2022/09/02 02:40:56;;;;;;;;;;;;;;;;;;1049908;28;4009;-51
2022/09/02 02:41:28;;;;;;;;;;;;;;;;;;1052205;28;3959;-50
2022/09/02 02:41:59;;;;;;;;;;;;;;;;;;1051605;28;4088;-48
2022/09/02 02:42:29;;;;;;;;;;;;;;;;;;1052010;28;3789;-48
2022/09/02 02:42:59;;;;;;;;;;;;;;;;;;1051212;28;3949;-49
2022/09/02 02:43:29;;;;;;;;;;;;;;;;;;1051435;28;4387;-48
2022/09/02 02:44:00;;;;;;;;;;;;;;;;;;1050317;28;3824;-52
2022/09/02 02:44:30;;;;;;;;;;;;;;;;;;1052171;28;3652;-49
2022/09/02 02:45:00;;;;;;;;;;;;;;;;;;1050703;28;4106;-49
2022/09/02 02:45:30;;;;;;;;;;;;;;;;;;1050078;28;3714;-52
2022/09/02 02:46:01;;;;;;;;;;;;;;;;;;1051218;28;3876;-48
2022/09/02 02:46:34;;;;;;;;;;;;;;;;;;1051459;28;3620;-50
2022/09/02 02:47:05;;;;;;;;;;;;;;;;;;1051911;28;3855;-48
2022/09/02 02:47:39;;;;;;;;;;;;;;;;;;1050812;28;3515;-48
2022/09/02 02:48:09;;;;;;;;;;;;;;;;;;1051406;28;4380;-51
2022/09/02 02:48:40;;;;;;;;;;;;;;;;;;1051598;28;3701;-50
2022/09/02 02:49:10;;;;;;;;;;;;;;;;;;1052749;28;3856;-49
2022/09/02 02:49:42;;;;;;;;;;;;;;;;;;1052004;28;3282;-50
2022/09/02 02:50:14;;;;;;;;;;;;;;;;;;1050111;28;5408;-48
2022/09/02 02:50:44;;;;;;;;;;;;;;;;;;1052532;28;3316;-47
2022/09/02 02:51:15;;;;;;;;;;;;;;;;;;1051167;28;4014;-52
2022/09/02 02:51:45;;;;;;;;;;;;;;;;;;1051624;28;3270;-49
2022/09/02 02:52:15;;;;;;;;;;;;;;;;;;1050818;28;3917;-53
2022/09/02 02:52:56;;;;;;;;;;;;;;;;;;1050505;28;3751;-51
2022/09/02 02:53:35;;;;;;;;;;;;;;;;;;1049913;28;3779;-47
2022/09/02 02:54:05;;;;;;;;;;;;;;;;;;1051727;28;3932;-47
2022/09/02 02:54:36;;;;;;;;;;;;;;;;;;1051535;28;3866;-52
2022/09/02 02:55:07;;;;;;;;;;;;;;;;;;1051977;28;3936;-54
2022/09/02 02:55:38;;;;;;;;;;;;;;;;;;1051060;28;3457;-49
2022/09/02 02:56:08;;;;;;;;;;;;;;;;;;1051423;28;4064;-48
2022/09/02 02:56:39;;;;;;;;;;;;;;;;;;1050973;28;3669;-48
2022/09/02 02:57:10;;;;;;;;;;;;;;;;;;1047074;28;3780;-52
2022/09/02 02:57:41;;;;;;;;;;;;;;;;;;1044090;28;3454;-52
2022/09/02 02:58:12;;;;;;;;;;;;;;;;;;1044068;28;4188;-52
2022/09/02 02:58:42;;;;;;;;;;;;;;;;;;1043382;28;3501;-47
2022/09/02 02:59:13;;;;;;;;;;;;;;;;;;1048212;28;4005;-49
2022/09/02 02:59:43;;;;;;;;;;;;;;;;;;1052077;28;3537;-51
2022/09/02 03:00:16;;;;;;;;;;;;;;;;;;1050335;28;3825;-50
2022/09/02 03:00:46;;;;;;;;;;;;;;;;;;1051877;28;3809;-49
2022/09/02 03:01:17;;;;;;;;;;;;;;;;;;1050754;28;3812;-48
2022/09/02 03:01:47;;;;;;;;;;;;;;;;;;1051183;28;4085;-48
2022/09/02 03:02:17;;;;;;;;;;;;;;;;;;1052240;28;3760;-51
2022/09/02 03:02:48;;;;;;;;;;;;;;;;;;1051443;28;3994;-49
2022/09/02 03:03:19;;;;;;;;;;;;;;;;;;1051350;28;2793;-51
2022/09/02 03:03:50;;;;;;;;;;;;;;;;;;1050774;28;3773;-49
2022/09/02 03:04:21;;;;;;;;;;;;;;;;;;1052205;28;2941;-50
2022/09/02 03:04:53;;;;;;;;;;;;;;;;;;1051162;28;4081;-47
2022/09/02 03:05:23;;;;;;;;;;;;;;;;;;1051403;28;1865;-48
2022/09/02 03:05:54;;;;;;;;;;;;;;;;;;1048673;28;3915;-48
2022/09/02 03:06:24;;;;;;;;;;;;;;;;;;1049278;28;3099;-48
2022/09/02 03:06:54;;;;;;;;;;;;;;;;;;1046833;28;4340;-49
2022/09/02 03:07:24;;;;;;;;;;;;;;;;;;1047377;28;3190;-47
2022/09/02 03:07:55;;;;;;;;;;;;;;;;;;1050694;28;3970;-51
2022/09/02 03:08:25;;;;;;;;;;;;;;;;;;1052389;28;3780;-52
2022/09/02 03:08:56;;;;;;;;;;;;;;;;;;1050708;28;3963;-50
2022/09/02 03:09:26;;;;;;;;;;;;;;;;;;1051703;28;3301;-49
2022/09/02 03:09:57;;;;;;;;;;;;;;;;;;1050963;28;4892;-50
2022/09/02 03:10:27;;;;;;;;;;;;;;;;;;1051491;28;3442;-52
2022/09/02 03:10:58;;;;;;;;;;;;;;;;;;1049364;28;3919;-48
2022/09/02 03:11:29;;;;;;;;;;;;;;;;;;1051031;28;3709;-50
2022/09/02 03:11:59;;;;;;;;;;;;;;;;;;1049090;28;3897;-48
2022/09/02 03:12:31;;;;;;;;;;;;;;;;;;1052176;28;2901;-45
2022/09/02 03:13:02;;;;;;;;;;;;;;;;;;1050549;28;3892;-50
2022/09/02 03:13:33;;;;;;;;;;;;;;;;;;1051911;28;3656;-50
2022/09/02 03:14:04;;;;;;;;;;;;;;;;;;1050166;28;4063;-48
2022/09/02 03:14:40;;;;;;;;;;;;;;;;;;1052726;28;2820;-50
2022/09/02 03:15:11;;;;;;;;;;;;;;;;;;1049707;28;3875;-52
2022/09/02 03:15:41;;;;;;;;;;;;;;;;;;1051711;28;3341;-50
2022/09/02 03:16:11;;;;;;;;;;;;;;;;;;1052248;28;3845;-48
2022/09/02 03:16:42;;;;;;;;;;;;;;;;;;1051078;28;2764;-48
2022/09/02 03:17:12;;;;;;;;;;;;;;;;;;1051849;28;3817;-50
2022/09/02 03:17:43;;;;;;;;;;;;;;;;;;1050621;28;3518;-50
2022/09/02 03:18:13;;;;;;;;;;;;;;;;;;1050339;28;3813;-50
2022/09/02 03:18:43;;;;;;;;;;;;;;;;;;1050735;28;3091;-49
2022/09/02 03:19:14;;;;;;;;;;;;;;;;;;1046554;28;3931;-50
2022/09/02 03:19:44;;;;;;;;;;;;;;;;;;1047376;28;3187;-53
2022/09/02 03:20:15;;;;;;;;;;;;;;;;;;1045989;28;3728;-47
2022/09/02 03:20:46;;;;;;;;;;;;;;;;;;1046532;28;4045;-53
2022/09/02 03:21:17;;;;;;;;;;;;;;;;;;1052129;28;3828;-48
2022/09/02 03:21:47;;;;;;;;;;;;;;;;;;1051006;28;3897;-53
2022/09/02 03:22:17;;;;;;;;;;;;;;;;;;1052391;28;3228;-48
2022/09/02 03:22:49;;;;;;;;;;;;;;;;;;1050914;28;4051;-49
2022/09/02 03:23:19;;;;;;;;;;;;;;;;;;1052161;28;2701;-53
2022/09/02 03:23:50;;;;;;;;;;;;;;;;;;1051782;28;4101;-51
2022/09/02 03:24:20;;;;;;;;;;;;;;;;;;1051179;28;3051;-51
2022/09/02 03:24:50;;;;;;;;;;;;;;;;;;1051119;28;4057;-49
2022/09/02 03:25:21;;;;;;;;;;;;;;;;;;1048004;28;2945;-48
2022/09/02 03:25:51;;;;;;;;;;;;;;;;;;1041969;28;4013;-51
2022/09/02 03:26:22;;;;;;;;;;;;;;;;;;1044412;28;3143;-50
2022/09/02 03:26:53;;;;;;;;;;;;;;;;;;1043762;28;4055;-49
2022/09/02 03:27:23;;;;;;;;;;;;;;;;;;1046970;28;3626;-50
2022/09/02 03:27:54;;;;;;;;;;;;;;;;;;1051189;28;4157;-52
2022/09/02 03:28:24;;;;;;;;;;;;;;;;;;1052926;28;3815;-47
2022/09/02 03:28:55;;;;;;;;;;;;;;;;;;1050686;28;3885;-48
2022/09/02 03:29:26;;;;;;;;;;;;;;;;;;1047331;28;3792;-49
2022/09/02 03:29:56;;;;;;;;;;;;;;;;;;1046049;28;3898;-51
2022/09/02 03:30:27;;;;;;;;;;;;;;;;;;1046425;28;3810;-50
2022/09/02 03:30:57;;;;;;;;;;;;;;;;;;1046149;28;4048;-49
2022/09/02 03:31:28;;;;;;;;;;;;;;;;;;1051209;28;3518;-51
2022/09/02 03:31:59;;;;;;;;;;;;;;;;;;1050433;28;4050;-48
2022/09/02 03:32:29;;;;;;;;;;;;;;;;;;1050700;28;3819;-52
2022/09/02 03:33:06;;;;;;;;;;;;;;;;;;1050959;28;4044;-50
2022/09/02 03:33:36;;;;;;;;;;;;;;;;;;1052489;28;3361;-48
2022/09/02 03:34:07;;;;;;;;;;;;;;;;;;1050009;28;3785;-53
2022/09/02 03:34:37;;;;;;;;;;;;;;;;;;1052807;28;3572;-47
2022/09/02 03:35:17;;;;;;;;;;;;;;;;;;1049932;28;3893;-51
2022/09/02 03:35:48;;;;;;;;;;;;;;;;;;1051146;28;4113;-49
2022/09/02 03:36:23;;;;;;;;;;;;;;;;;;1051054;28;3676;-52
2022/09/02 03:36:53;;;;;;;;;;;;;;;;;;1051625;28;4619;-50
2022/09/02 03:37:23;;;;;;;;;;;;;;;;;;1051249;28;2969;-47
2022/09/02 03:37:54;;;;;;;;;;;;;;;;;;1049736;28;4164;-51